EmailTwitter


Observations de surface / France / LFBO (07630)

Régions: Québec | Canada | États-Unis | Europe | France | UK | Elsewhere
Station
Affichage
Infos & localisation pour LFBO (07630) | Aide pour décoder les METARs

Observations prises le 2017-04-27 à 10H30 UTC à TOULOUSE/BLAGNAC, FR (LFBO)

Etat du ciel: partiellement nuageux.

Température: 10.0 Celsius

Point de rosée: -1.0 Celsius

Humidité relative: 46%

Facteur vent: 8.

Vents: Nord-ouest à 19 km/h ou 10 noeuds.

Pression au niveau moyen de la mer: 101.70 kilopascals.

Visibilité horizontale: 6.21 milles terrestres ou 9.94 kilomètres.

Hauteur du plafond: 1524 mètres ( 5000 pieds ).

Observation METAR:

LFBO 271030Z AUTO 32010KT 280V360 9999 SCT040 BKN050 BKN150 10/M01 Q1017 TEMPO

4000 SHRA BKN030 FEW050CB=